Time;durP1;ratioP1;P1;durP2;ratioP2;P2;SDS_P1;SDS_P2;PMS_P1;PMS_P2;Temp;Humidity;BMP_temperature;BMP_pressure;BME280_temperature;BME280_humidity;BME280_pressure;Samples;Min_cycle;Max_cycle;Signal;HPM_P1;HPM_P2
2023/07/10 00:01:38;;;;;;;2.85;2.55;;;;;;;;;;5887470;28;9999798;-62
2023/07/10 00:04:38;;;;;;;4.63;2.92;;;;;;;;;;6234506;28;20124;-63
2023/07/10 00:07:38;;;;;;;;;;;;;;;;;;6237197;28;20455;-62
2023/07/10 00:10:38;;;;;;;3.60;2.17;;;;;;;;;;5887312;28;9999934;-62
2023/07/10 00:13:38;;;;;;;;;;;;;;;;;;6237827;28;20505;-63
2023/07/10 00:16:38;;;;;;;2.90;2.70;;;;;;;;;;6234141;28;20051;-63
2023/07/10 00:19:41;;;;;;;;;;;;;;;;;;6233918;28;20184;-61
2023/07/10 00:22:41;;;;;;;2.65;2.45;;;;;;;;;;6236304;28;20337;-61
2023/07/10 00:25:41;;;;;;;;;;;;;;;;;;6235479;28;20033;-62
2023/07/10 00:28:42;;;;;;;3.72;2.25;;;;;;;;;;6232817;28;21684;-62
2023/07/10 00:31:42;;;;;;;;;;;;;;;;;;6232069;28;20116;-61
2023/07/10 00:34:42;;;;;;;2.87;2.67;;;;;;;;;;6230923;28;20030;-61
2023/07/10 00:37:42;;;;;;;;;;;;;;;;;;6232304;28;20022;-62
2023/07/10 00:40:46;;;;;;;3.42;2.50;;;;;;;;;;6233838;28;19913;-62
2023/07/10 00:43:49;;;;;;;3.13;2.83;;;;;;;;;;6236379;28;20112;-62
2023/07/10 00:46:53;;;;;;;3.03;2.75;;;;;;;;;;6235552;28;20021;-62
2023/07/10 00:49:58;;;;;;;4.18;3.40;;;;;;;;;;6236575;28;20021;-63
2023/07/10 00:52:59;;;;;;;3.70;3.38;;;;;;;;;;6232403;28;20084;-63
2023/07/10 00:56:01;;;;;;;3.80;3.22;;;;;;;;;;6235526;28;20096;-63
2023/07/10 00:59:19;;;;;;;3.47;3.05;;;;;;;;;;6233571;28;20029;-62
2023/07/10 01:02:20;;;;;;;3.25;2.95;;;;;;;;;;6231599;28;20025;-65
2023/07/10 01:05:20;;;;;;;;;;;;;;;;;;6230484;28;20402;-62
2023/07/10 01:08:23;;;;;;;3.05;2.72;;;;;;;;;;6233814;28;19917;-62
2023/07/10 01:11:23;;;;;;;3.25;2.92;;;;;;;;;;6232654;28;20025;-61
2023/07/10 01:14:23;;;;;;;;;;;;;;;;;;6232917;28;20026;-63
2023/07/10 01:17:23;;;;;;;2.63;2.30;;;;;;;;;;6232761;28;19917;-63
2023/07/10 01:20:23;;;;;;;;;;;;;;;;;;6231591;28;20115;-62
2023/07/10 01:23:24;;;;;;;2.47;2.28;;;;;;;;;;6234021;28;19948;-62
2023/07/10 01:26:24;;;;;;;;;;;;;;;;;;6233269;28;20613;-63
2023/07/10 01:29:27;;;;;;;3.47;2.55;;;;;;;;;;6234343;28;19909;-65
2023/07/10 01:32:27;;;;;;;3.30;3.00;;;;;;;;;;6228014;28;20025;-61
2023/07/10 01:35:27;;;;;;;;;;;;;;;;;;6234039;28;20029;-62
2023/07/10 01:38:30;;;;;;;3.60;2.55;;;;;;;;;;6233077;28;19992;-63
2023/07/10 01:41:39;;;;;;;3.08;2.50;;;;;;;;;;6234169;28;20029;-63
2023/07/10 01:44:41;;;;;;;2.72;2.53;;;;;;;;;;6231481;28;20052;-60
2023/07/10 01:47:41;;;;;;;3.38;2.45;;;;;;;;;;6228814;28;20026;-63
2023/07/10 01:50:42;;;;;;;;;;;;;;;;;;6234035;28;20021;-61
2023/07/10 01:53:44;;;;;;;2.53;2.33;;;;;;;;;;6235835;28;20289;-62
2023/07/10 01:56:45;;;;;;;3.42;2.78;;;;;;;;;;6235773;28;20024;-64
2023/07/10 01:59:45;;;;;;;;;;;;;;;;;;6232297;28;20125;-62
2023/07/10 02:02:45;;;;;;;3.25;2.45;;;;;;;;;;5536227;28;10000784;-62
2023/07/10 02:05:45;;;;;;;;;;;;;;;;;;6235629;28;21536;-60
2023/07/10 02:08:45;;;;;;;2.67;2.40;;;;;;;;;;6240477;28;20015;-63
2023/07/10 02:11:45;;;;;;;;;;;;;;;;;;6235409;28;20140;-64
2023/07/10 02:14:46;;;;;;;2.80;2.40;;;;;;;;;;6236459;28;20099;-64
2023/07/10 02:17:46;;;;;;;;;;;;;;;;;;6237640;28;20590;-62
2023/07/10 02:20:50;;;;;;;3.58;2.45;;;;;;;;;;6240595;28;19909;-60
2023/07/10 02:23:50;;;;;;;2.67;2.45;;;;;;;;;;6236748;28;20048;-62
2023/07/10 02:26:51;;;;;;;;;;;;;;;;;;6239359;28;20030;-63
2023/07/10 02:29:51;;;;;;;2.95;2.60;;;;;;;;;;6236186;28;20362;-62
2023/07/10 02:32:51;;;;;;;;;;;;;;;;;;6235099;28;20029;-60
2023/07/10 02:35:51;;;;;;;2.45;2.22;;;;;;;;;;6237996;28;20008;-61
2023/07/10 02:38:51;;;;;;;;;;;;;;;;;;6238993;28;21323;-62
2023/07/10 02:41:51;;;;;;;2.90;2.60;;;;;;;;;;6237485;28;19913;-61
2023/07/10 02:44:52;;;;;;;;;;;;;;;;;;6236168;28;20425;-63
2023/07/10 02:47:52;;;;;;;3.25;2.38;;;;;;;;;;6244484;28;20329;-63
2023/07/10 02:50:52;;;;;;;;;;;;;;;;;;6235101;28;20013;-61
2023/07/10 02:53:53;;;;;;;3.10;2.20;;;;;;;;;;6235818;28;20344;-62
2023/07/10 02:56:53;;;;;;;;;;;;;;;;;;6237754;28;20033;-63
2023/07/10 02:59:53;;;;;;;2.80;2.55;;;;;;;;;;6230900;28;20389;-62
2023/07/10 03:02:53;;;;;;;;;;;;;;;;;;6235620;28;20021;-61
2023/07/10 03:05:54;;;;;;;2.90;2.30;;;;;;;;;;6237500;28;19955;-63
2023/07/10 03:08:54;;;;;;;4.15;2.70;;;;;;;;;;6236416;28;20026;-62
2023/07/10 03:11:55;;;;;;;;;;;;;;;;;;6234796;28;20040;-61
2023/07/10 03:14:55;;;;;;;2.58;2.38;;;;;;;;;;6234423;28;19909;-60
2023/07/10 03:17:55;;;;;;;;;;;;;;;;;;6236682;28;20431;-62
2023/07/10 03:20:56;;;;;;;2.83;2.45;;;;;;;;;;6237191;28;19985;-61
2023/07/10 03:23:56;;;;;;;3.50;2.80;;;;;;;;;;6235151;28;20112;-61
2023/07/10 03:26:56;;;;;;;3.90;2.63;;;;;;;;;;6237160;28;20280;-60
2023/07/10 03:29:56;;;;;;;;;;;;;;;;;;6235368;28;20018;-63
2023/07/10 03:32:56;;;;;;;2.40;2.20;;;;;;;;;;6231247;28;19948;-61
2023/07/10 03:35:57;;;;;;;;;;;;;;;;;;6235090;28;20132;-61
2023/07/10 03:38:57;;;;;;;2.83;2.45;;;;;;;;;;6234101;28;19916;-61
2023/07/10 03:41:57;;;;;;;;;;;;;;;;;;6237726;28;20044;-61
2023/07/10 03:44:57;;;;;;;3.72;2.70;;;;;;;;;;6235742;28;20372;-63
2023/07/10 03:47:57;;;;;;;;;;;;;;;;;;6236996;28;20022;-62
2023/07/10 03:50:58;;;;;;;2.72;2.22;;;;;;;;;;6233416;28;20354;-61
2023/07/10 03:53:58;;;;;;;;;;;;;;;;;;6237480;28;20104;-62
2023/07/10 03:56:58;;;;;;;2.95;2.70;;;;;;;;;;6236133;28;20058;-62
2023/07/10 03:59:58;;;;;;;;;;;;;;;;;;6234762;28;20104;-62
2023/07/10 04:02:58;;;;;;;3.22;2.80;;;;;;;;;;6236024;28;19966;-63
2023/07/10 04:05:59;;;;;;;;;;;;;;;;;;6237280;28;20017;-62
2023/07/10 04:08:59;;;;;;;3.13;2.47;;;;;;;;;;6227807;28;19909;-63
2023/07/10 04:11:59;;;;;;;;;;;;;;;;;;6229053;28;20583;-66
2023/07/10 04:14:59;;;;;;;5.03;3.00;;;;;;;;;;6231539;28;19917;-63
2023/07/10 04:17:59;;;;;;;;;;;;;;;;;;6229951;28;20022;-63
2023/07/10 04:21:01;;;;;;;4.35;3.17;;;;;;;;;;6237469;28;19912;-62
2023/07/10 04:24:01;;;;;;;4.82;3.05;;;;;;;;;;6232576;28;20032;-62
2023/07/10 04:27:01;;;;;;;;;;;;;;;;;;6230603;28;20025;-62
2023/07/10 04:30:01;;;;;;;5.22;3.05;;;;;;;;;;6226185;28;19962;-61
2023/07/10 04:33:02;;;;;;;;;;;;;;;;;;6224460;28;20104;-62
2023/07/10 04:36:02;;;;;;;3.00;2.67;;;;;;;;;;6223878;28;19909;-63
2023/07/10 04:39:02;;;;;;;;;;;;;;;;;;6230519;28;20103;-62
2023/07/10 04:42:03;;;;;;;3.13;2.53;;;;;;;;;;6225190;28;21230;-62
2023/07/10 04:45:03;;;;;;;;;;;;;;;;;;6226199;28;20087;-62
2023/07/10 04:48:03;;;;;;;3.47;2.90;;;;;;;;;;6229567;28;20346;-61
2023/07/10 04:51:03;;;;;;;;;;;;;;;;;;6229571;28;20030;-62
2023/07/10 04:54:03;;;;;;;2.90;2.60;;;;;;;;;;6222647;28;19923;-63
2023/07/10 04:57:04;;;;;;;;;;;;;;;;;;6229469;28;20024;-62
2023/07/10 05:00:05;;;;;;;2.95;2.08;;;;;;;;;;6219900;28;19928;-60
2023/07/10 05:03:05;;;;;;;4.35;2.55;;;;;;;;;;6227169;28;20485;-62
2023/07/10 05:06:05;;;;;;;4.68;2.65;;;;;;;;;;6230793;28;20112;-62
2023/07/10 05:09:06;;;;;;;4.63;3.07;;;;;;;;;;6233975;28;20029;-60
2023/07/10 05:12:06;;;;;;;2.90;2.60;;;;;;;;;;6248649;28;20283;-62
2023/07/10 05:15:07;;;;;;;3.78;2.63;;;;;;;;;;6223688;28;20025;-62
2023/07/10 05:18:07;;;;;;;3.78;2.90;;;;;;;;;;6227504;28;20085;-63
2023/07/10 05:21:08;;;;;;;5.80;3.03;;;;;;;;;;6228115;28;20021;-62
2023/07/10 05:24:08;;;;;;;4.28;2.85;;;;;;;;;;6226574;28;20037;-62
2023/07/10 05:27:08;;;;;;;3.47;2.50;;;;;;;;;;6229668;28;20105;-63
2023/07/10 05:30:08;;;;;;;3.87;2.80;;;;;;;;;;6223027;28;20276;-61
2023/07/10 05:33:09;;;;;;;3.75;3.22;;;;;;;;;;6230022;28;20331;-63
2023/07/10 05:36:10;;;;;;;3.92;3.22;;;;;;;;;;6230944;28;20025;-61
2023/07/10 05:39:12;;;;;;;4.28;2.95;;;;;;;;;;6233472;28;20041;-64
2023/07/10 05:42:12;;;;;;;3.65;2.70;;;;;;;;;;6241901;28;20466;-63
2023/07/10 05:45:12;;;;;;;3.53;2.77;;;;;;;;;;6231771;28;20059;-63
2023/07/10 05:48:13;;;;;;;3.37;2.93;;;;;;;;;;6244640;28;20302;-64
2023/07/10 05:51:13;;;;;;;3.50;3.00;;;;;;;;;;6240662;28;20276;-64
2023/07/10 05:54:13;;;;;;;2.97;2.67;;;;;;;;;;6234966;28;20271;-64
2023/07/10 05:57:13;;;;;;;3.40;3.10;;;;;;;;;;6228825;28;20470;-63
2023/07/10 06:00:14;;;;;;;4.27;3.43;;;;;;;;;;6230077;28;20782;-62
2023/07/10 06:03:14;;;;;;;4.32;3.83;;;;;;;;;;6223832;28;21052;-69
2023/07/10 06:06:15;;;;;;;4.63;3.45;;;;;;;;;;6231674;28;20018;-68
2023/07/10 06:09:15;;;;;;;5.17;3.00;;;;;;;;;;6231824;28;20467;-70
2023/07/10 06:12:15;;;;;;;4.32;3.25;;;;;;;;;;6235775;28;20791;-71
2023/07/10 06:15:15;;;;;;;5.33;3.10;;;;;;;;;;6234915;28;20032;-70
2023/07/10 06:18:16;;;;;;;4.50;3.60;;;;;;;;;;6232201;28;20025;-70
2023/07/10 06:21:17;;;;;;;4.68;3.20;;;;;;;;;;6234134;28;20020;-72
2023/07/10 06:24:17;;;;;;;3.88;3.22;;;;;;;;;;6240055;28;20055;-70
2023/07/10 06:27:17;;;;;;;3.57;3.13;;;;;;;;;;5888879;28;10000011;-72
2023/07/10 06:30:17;;;;;;;3.37;3.00;;;;;;;;;;6239205;28;20302;-72
2023/07/10 06:33:18;;;;;;;4.03;3.50;;;;;;;;;;6241968;28;20276;-71
2023/07/10 06:36:18;;;;;;;4.97;3.27;;;;;;;;;;6239982;28;20029;-71
2023/07/10 06:39:18;;;;;;;4.10;3.07;;;;;;;;;;6238917;28;20671;-71
2023/07/10 06:42:18;;;;;;;4.47;3.43;;;;;;;;;;6240492;28;20040;-71
2023/07/10 06:45:19;;;;;;;3.33;3.03;;;;;;;;;;6241891;28;20775;-71
2023/07/10 06:48:19;;;;;;;7.20;2.97;;;;;;;;;;6236961;28;20064;-69
2023/07/10 06:51:19;;;;;;;3.70;3.20;;;;;;;;;;6248215;28;20116;-71
2023/07/10 06:54:19;;;;;;;4.83;3.23;;;;;;;;;;6243554;28;20041;-71
2023/07/10 06:57:20;;;;;;;4.43;3.23;;;;;;;;;;6223256;28;20287;-70
2023/07/10 07:00:20;;;;;;;3.20;2.90;;;;;;;;;;6238244;28;20029;-71
2023/07/10 07:03:21;;;;;;;2.90;2.70;;;;;;;;;;6230867;28;21037;-72
2023/07/10 07:06:22;;;;;;;3.17;2.88;;;;;;;;;;6224751;28;20033;-72
2023/07/10 07:09:22;;;;;;;3.72;2.90;;;;;;;;;;6233515;28;20486;-71
2023/07/10 07:12:22;;;;;;;3.73;3.43;;;;;;;;;;6239278;28;20030;-73
2023/07/10 07:15:23;;;;;;;3.60;2.83;;;;;;;;;;6239960;28;20334;-71
2023/07/10 07:18:24;;;;;;;4.00;3.28;;;;;;;;;;6239827;28;20642;-69
2023/07/10 07:21:27;;;;;;;3.83;3.33;;;;;;;;;;6236499;28;20033;-71
2023/07/10 07:24:27;;;;;;;3.42;3.13;;;;;;;;;;6235360;28;20026;-70
2023/07/10 07:27:31;;;;;;;3.30;2.70;;;;;;;;;;6236900;28;20029;-73
2023/07/10 07:30:32;;;;;;;3.53;3.22;;;;;;;;;;6241551;28;20104;-68
2023/07/10 07:33:32;;;;;;;5.35;3.38;;;;;;;;;;6238027;28;20090;-69
2023/07/10 07:36:34;;;;;;;4.05;3.03;;;;;;;;;;6232505;28;20526;-72
2023/07/10 07:39:34;;;;;;;3.67;3.38;;;;;;;;;;6233875;28;20037;-70
2023/07/10 07:42:35;;;;;;;3.60;3.27;;;;;;;;;;6238634;28;20038;-71
2023/07/10 07:45:35;;;;;;;3.30;2.70;;;;;;;;;;6236389;28;20390;-70
2023/07/10 07:48:35;;;;;;;3.60;3.30;;;;;;;;;;6230530;28;20017;-69
2023/07/10 07:51:37;;;;;;;4.00;3.60;;;;;;;;;;6233525;28;20021;-70
2023/07/10 07:54:37;;;;;;;2.97;2.67;;;;;;;;;;6231452;28;20030;-71
2023/07/10 07:57:38;;;;;;;3.33;2.90;;;;;;;;;;6227925;28;20025;-70
2023/07/10 08:00:38;;;;;;;4.22;3.20;;;;;;;;;;6228268;28;20092;-71
2023/07/10 08:03:38;;;;;;;5.30;3.03;;;;;;;;;;6224109;28;20060;-70
2023/07/10 08:06:38;;;;;;;4.37;3.50;;;;;;;;;;6224652;28;20026;-72
2023/07/10 08:09:38;;;;;;;4.03;3.33;;;;;;;;;;6221576;28;20036;-71
2023/07/10 08:12:39;;;;;;;4.55;3.33;;;;;;;;;;6221187;28;20041;-71
2023/07/10 08:15:39;;;;;;;4.00;3.60;;;;;;;;;;6230981;28;20036;-71
2023/07/10 08:18:41;;;;;;;3.33;3.03;;;;;;;;;;6234143;28;20489;-71
2023/07/10 08:21:41;;;;;;;3.80;3.40;;;;;;;;;;6235979;28;20026;-72
2023/07/10 08:24:41;;;;;;;3.53;3.23;;;;;;;;;;6249761;28;20072;-71
2023/07/10 08:27:43;;;;;;;4.27;3.87;;;;;;;;;;6246473;28;20310;-69
2023/07/10 08:30:44;;;;;;;5.45;3.65;;;;;;;;;;6240895;28;20417;-69
2023/07/10 08:33:44;;;;;;;3.83;3.45;;;;;;;;;;6247262;28;20045;-71
2023/07/10 08:36:45;;;;;;;3.83;3.40;;;;;;;;;;6248019;28;20029;-70
2023/07/10 08:39:45;;;;;;;3.70;3.22;;;;;;;;;;6234818;28;20017;-71
2023/07/10 08:42:45;;;;;;;3.67;3.30;;;;;;;;;;6232775;28;20026;-72
2023/07/10 08:45:46;;;;;;;5.37;3.43;;;;;;;;;;6249295;28;20482;-71
2023/07/10 08:49:03;;;;;;;3.95;3.25;;;;;;;;;;6247114;28;20629;-70
2023/07/10 08:52:15;;;;;;;4.53;3.40;;;;;;;;;;6240030;28;20056;-71
2023/07/10 08:55:19;;;;;;;4.75;3.58;;;;;;;;;;6248205;28;20031;-71
2023/07/10 08:58:21;;;;;;;3.25;2.95;;;;;;;;;;6245545;28;20087;-72
2023/07/10 09:01:28;;;;;;;4.00;3.40;;;;;;;;;;6246733;28;20753;-71
2023/07/10 09:04:29;;;;;;;4.07;3.22;;;;;;;;;;6228110;28;20105;-70
2023/07/10 09:07:33;;;;;;;5.85;3.25;;;;;;;;;;6236458;28;20056;-70
2023/07/10 09:10:46;;;;;;;4.15;3.60;;;;;;;;;;6230595;28;20029;-67
2023/07/10 09:13:50;;;;;;;3.55;3.25;;;;;;;;;;6229255;28;20032;-70
2023/07/10 09:16:52;;;;;;;3.90;3.50;;;;;;;;;;6229002;28;20366;-71
2023/07/10 09:19:53;;;;;;;3.47;3.17;;;;;;;;;;6221376;28;20666;-70
2023/07/10 09:22:56;;;;;;;3.35;3.05;;;;;;;;;;6225700;28;20052;-70
2023/07/10 09:25:58;;;;;;;4.47;3.78;;;;;;;;;;6228863;28;20029;-71
2023/07/10 09:29:10;;;;;;;3.65;3.35;;;;;;;;;;6231609;28;20022;-70
2023/07/10 09:32:16;;;;;;;4.05;3.58;;;;;;;;;;6226669;28;20440;-70
2023/07/10 09:35:16;;;;;;;3.65;3.28;;;;;;;;;;6235973;28;20029;-69
2023/07/10 09:38:18;;;;;;;3.97;3.30;;;;;;;;;;6232236;28;20029;-69
2023/07/10 09:41:22;;;;;;;3.70;3.40;;;;;;;;;;6227775;28;20091;-69
2023/07/10 09:44:23;;;;;;;4.15;3.50;;;;;;;;;;6230480;28;20022;-72
2023/07/10 09:47:23;;;;;;;3.47;3.17;;;;;;;;;;6229576;28;20037;-71
2023/07/10 09:50:23;;;;;;;3.27;2.83;;;;;;;;;;6234832;28;20018;-74
2023/07/10 09:53:36;;;;;;;4.55;3.78;;;;;;;;;;6245923;28;20025;-73
2023/07/10 09:56:38;;;;;;;3.92;3.53;;;;;;;;;;6204681;28;20034;-70
2023/07/10 09:59:38;;;;;;;3.80;3.40;;;;;;;;;;6165879;28;20132;-69
2023/07/10 10:02:42;;;;;;;3.65;3.05;;;;;;;;;;6181776;28;20095;-69
2023/07/10 10:05:42;;;;;;;3.38;3.08;;;;;;;;;;6183252;28;20025;-70
2023/07/10 10:08:45;;;;;;;4.27;3.40;;;;;;;;;;6181392;28;20168;-69
2023/07/10 10:11:46;;;;;;;3.72;3.42;;;;;;;;;;6185411;28;20834;-70
2023/07/10 10:14:56;;;;;;;4.10;3.70;;;;;;;;;;6184241;28;20070;-69
2023/07/10 10:18:01;;;;;;;3.38;3.10;;;;;;;;;;6191660;28;21235;-70
2023/07/10 10:21:03;;;;;;;5.28;2.85;;;;;;;;;;6192141;28;21333;-70
2023/07/10 10:24:08;;;;;;;4.35;3.42;;;;;;;;;;6228653;28;20033;-72
2023/07/10 10:27:18;;;;;;;3.88;3.50;;;;;;;;;;6250766;28;20025;-71
2023/07/10 10:30:18;;;;;;;3.58;3.13;;;;;;;;;;6252265;28;20378;-71
2023/07/10 10:33:24;;;;;;;3.87;3.57;;;;;;;;;;6247044;28;20071;-70
2023/07/10 10:36:43;;;;;;;3.60;3.30;;;;;;;;;;6249730;28;20045;-71
2023/07/10 10:40:07;;;;;;;8.23;3.22;;;;;;;;;;6246881;28;20108;-71
2023/07/10 10:43:10;;;;;;;5.05;3.22;;;;;;;;;;6238178;28;20025;-70
2023/07/10 10:46:22;;;;;;;6.00;3.40;;;;;;;;;;6245095;28;20028;-70
2023/07/10 10:49:28;;;;;;;3.72;3.42;;;;;;;;;;6228858;28;20139;-70
2023/07/10 10:52:28;;;;;;;3.83;3.47;;;;;;;;;;6225698;28;20037;-81
2023/07/10 10:55:32;;;;;;;4.27;3.47;;;;;;;;;;6226665;28;20034;-69
2023/07/10 10:58:41;;;;;;;3.53;3.20;;;;;;;;;;6203705;28;20057;-69
2023/07/10 11:01:41;;;;;;;3.58;3.28;;;;;;;;;;6186627;28;20117;-70
2023/07/10 11:04:58;;;;;;;3.77;3.40;;;;;;;;;;6183333;28;20029;-71
2023/07/10 11:08:01;;;;;;;8.18;5.68;;;;;;;;;;6185720;28;20030;-72
2023/07/10 11:11:20;;;;;;;4.43;3.50;;;;;;;;;;6187913;28;20194;-70
2023/07/10 11:14:21;;;;;;;5.00;4.53;;;;;;;;;;6188808;28;20038;-72
2023/07/10 11:17:21;;;;;;;6.50;4.93;;;;;;;;;;6188323;28;20036;-70
2023/07/10 11:20:23;;;;;;;6.78;5.35;;;;;;;;;;6183832;28;20041;-71
2023/07/10 11:23:35;;;;;;;5.50;5.00;;;;;;;;;;6185856;28;20025;-73
2023/07/10 11:26:36;;;;;;;5.55;5.00;;;;;;;;;;6185107;28;20037;-71
2023/07/10 11:29:41;;;;;;;8.73;5.07;;;;;;;;;;6184714;28;20108;-68
2023/07/10 11:32:55;;;;;;;7.05;4.60;;;;;;;;;;6199069;28;20021;-72
2023/07/10 11:36:11;;;;;;;8.43;5.00;;;;;;;;;;6231136;28;20072;-69
2023/07/10 11:39:19;;;;;;;6.03;4.90;;;;;;;;;;6178948;28;20461;-68
2023/07/10 11:42:23;;;;;;;10.05;4.75;;;;;;;;;;6181190;28;20040;-69
2023/07/10 11:45:44;;;;;;;5.88;4.97;;;;;;;;;;6184479;28;20418;-69
2023/07/10 11:48:56;;;;;;;6.50;4.68;;;;;;;;;;6183021;28;20080;-72
2023/07/10 11:52:14;;;;;;;5.93;4.90;;;;;;;;;;6186028;28;20692;-69
2023/07/10 11:55:23;;;;;;;5.43;4.57;;;;;;;;;;6196794;28;20053;-71
2023/07/10 11:58:30;;;;;;;7.18;4.30;;;;;;;;;;6182089;28;20302;-71
2023/07/10 12:01:31;;;;;;;6.07;4.60;;;;;;;;;;6193822;28;20184;-70
2023/07/10 12:04:31;;;;;;;5.78;4.57;;;;;;;;;;6197397;28;20029;-70
2023/07/10 12:07:32;;;;;;;5.33;4.60;;;;;;;;;;6189297;28;20032;-71
2023/07/10 12:10:35;;;;;;;4.97;4.37;;;;;;;;;;6194954;28;20034;-70
2023/07/10 12:13:36;;;;;;;5.38;4.80;;;;;;;;;;6193975;28;20088;-72
2023/07/10 12:16:55;;;;;;;4.85;4.18;;;;;;;;;;6192725;28;20033;-71
2023/07/10 12:19:59;;;;;;;4.93;4.45;;;;;;;;;;6196129;28;20629;-71
2023/07/10 12:23:03;;;;;;;5.57;4.28;;;;;;;;;;6199418;28;20045;-73
2023/07/10 12:26:14;;;;;;;5.07;4.57;;;;;;;;;;6192302;28;20079;-71
2023/07/10 12:29:15;;;;;;;6.03;4.60;;;;;;;;;;6196978;28;20546;-71
2023/07/10 12:32:16;;;;;;;4.65;4.07;;;;;;;;;;6195557;28;20391;-70
2023/07/10 12:35:25;;;;;;;5.13;4.07;;;;;;;;;;6192492;28;20061;-73
2023/07/10 12:38:26;;;;;;;4.80;4.30;;;;;;;;;;6192827;28;20683;-67
2023/07/10 12:41:34;;;;;;;4.55;4.00;;;;;;;;;;6192217;28;20112;-72
2023/07/10 12:44:41;;;;;;;4.80;4.00;;;;;;;;;;6195737;28;21260;-72
2023/07/10 12:47:45;;;;;;;5.00;4.05;;;;;;;;;;6198233;28;20514;-71
2023/07/10 12:50:46;;;;;;;4.95;3.78;;;;;;;;;;6195820;28;20064;-72
2023/07/10 12:53:46;;;;;;;5.32;4.57;;;;;;;;;;6201437;28;20099;-72
2023/07/10 12:56:47;;;;;;;5.97;5.03;;;;;;;;;;6234434;28;20036;-71
2023/07/10 12:59:48;;;;;;;5.68;4.60;;;;;;;;;;6191970;28;20526;-70
2023/07/10 13:02:50;;;;;;;5.38;4.50;;;;;;;;;;6195064;28;20060;-70
2023/07/10 13:05:52;;;;;;;5.22;4.40;;;;;;;;;;6201067;28;20034;-71
2023/07/10 13:08:54;;;;;;;4.70;4.30;;;;;;;;;;6201758;28;21071;-72
2023/07/10 13:11:55;;;;;;;5.22;4.50;;;;;;;;;;6199672;28;20037;-70
2023/07/10 13:14:55;;;;;;;4.85;4.35;;;;;;;;;;6195741;28;20184;-69
2023/07/10 13:17:56;;;;;;;4.90;4.40;;;;;;;;;;6192385;28;20401;-68
2023/07/10 13:20:56;;;;;;;4.70;4.20;;;;;;;;;;6190257;28;20111;-70
2023/07/10 13:23:56;;;;;;;4.70;4.30;;;;;;;;;;6194579;28;20030;-72
2023/07/10 13:26:56;;;;;;;4.23;3.77;;;;;;;;;;6200083;28;20037;-73
2023/07/10 13:29:57;;;;;;;5.23;4.03;;;;;;;;;;6201492;28;20030;-68
2023/07/10 13:32:57;;;;;;;4.83;4.13;;;;;;;;;;6201405;28;20049;-70
2023/07/10 13:35:58;;;;;;;4.50;4.10;;;;;;;;;;6199820;28;20049;-71
2023/07/10 13:38:58;;;;;;;4.10;3.80;;;;;;;;;;6198254;28;21240;-71
2023/07/10 13:41:59;;;;;;;4.70;3.83;;;;;;;;;;6199923;28;22186;-70
2023/07/10 13:44:59;;;;;;;4.53;3.70;;;;;;;;;;6199818;28;20036;-71
2023/07/10 13:47:59;;;;;;;3.50;3.20;;;;;;;;;;6203583;28;20040;-69
2023/07/10 13:50:59;;;;;;;3.77;3.47;;;;;;;;;;6189725;28;20040;-69
2023/07/10 13:54:00;;;;;;;4.97;3.80;;;;;;;;;;6185066;28;20679;-69
2023/07/10 13:57:00;;;;;;;5.40;3.28;;;;;;;;;;6192341;28;20422;-69
2023/07/10 14:00:01;;;;;;;3.80;3.37;;;;;;;;;;6182445;28;20486;-70
2023/07/10 14:03:01;;;;;;;3.60;3.30;;;;;;;;;;6179443;28;20528;-70
2023/07/10 14:06:01;;;;;;;3.33;3.00;;;;;;;;;;6178086;28;20093;-71
2023/07/10 14:09:04;;;;;;;3.27;2.87;;;;;;;;;;6187983;28;20041;-70
2023/07/10 14:12:04;;;;;;;3.15;2.90;;;;;;;;;;6185227;28;20049;-71
2023/07/10 14:15:05;;;;;;;5.07;3.10;;;;;;;;;;6200533;28;20021;-70
2023/07/10 14:18:11;;;;;;;3.63;2.80;;;;;;;;;;6226824;28;20726;-71
2023/07/10 14:21:12;;;;;;;6.65;3.30;;;;;;;;;;6224807;28;20068;-68
2023/07/10 14:24:12;;;;;;;5.97;2.60;;;;;;;;;;6229674;28;20022;-70
2023/07/10 14:27:16;;;;;;;4.40;3.00;;;;;;;;;;6233500;28;20029;-71
2023/07/10 14:30:20;;;;;;;4.80;3.20;;;;;;;;;;6231564;28;20025;-70
2023/07/10 14:33:21;;;;;;;4.30;3.13;;;;;;;;;;6228740;28;20134;-70
2023/07/10 14:36:23;;;;;;;4.10;3.17;;;;;;;;;;6228792;28;20541;-71
2023/07/10 14:39:23;;;;;;;4.68;2.90;;;;;;;;;;6228629;28;20052;-70
2023/07/10 14:42:24;;;;;;;3.93;2.93;;;;;;;;;;6232537;28;20114;-70
2023/07/10 14:45:25;;;;;;;7.65;3.60;;;;;;;;;;6230909;28;20048;-69
2023/07/10 14:48:26;;;;;;;4.03;3.23;;;;;;;;;;6228418;28;20335;-70
2023/07/10 14:51:26;;;;;;;5.72;2.92;;;;;;;;;;6229634;28;20309;-70
2023/07/10 14:54:27;;;;;;;3.40;3.10;;;;;;;;;;6229869;28;20051;-71
2023/07/10 14:57:27;;;;;;;4.90;3.25;;;;;;;;;;6226435;28;20516;-72
2023/07/10 15:00:28;;;;;;;3.75;3.40;;;;;;;;;;6231754;28;20017;-71
2023/07/10 15:03:28;;;;;;;7.63;2.85;;;;;;;;;;6223374;28;20037;-73
2023/07/10 15:06:29;;;;;;;6.30;3.13;;;;;;;;;;6225958;28;20079;-72
2023/07/10 15:09:30;;;;;;;4.82;3.35;;;;;;;;;;6226958;28;20065;-70
2023/07/10 15:12:30;;;;;;;4.57;2.80;;;;;;;;;;6226642;28;20025;-69
2023/07/10 15:15:33;;;;;;;3.73;2.90;;;;;;;;;;6225092;28;20064;-70
2023/07/10 15:18:36;;;;;;;3.47;3.08;;;;;;;;;;6231397;28;20024;-72
2023/07/10 15:21:36;;;;;;;4.22;3.10;;;;;;;;;;6237206;28;20025;-70
2023/07/10 15:24:36;;;;;;;5.13;2.73;;;;;;;;;;6239949;28;20029;-71
2023/07/10 15:27:37;;;;;;;4.68;3.13;;;;;;;;;;6240229;28;20032;-73
2023/07/10 15:30:37;;;;;;;3.73;3.33;;;;;;;;;;6255256;28;20029;-71
2023/07/10 15:33:40;;;;;;;4.10;2.87;;;;;;;;;;6244542;28;21252;-74
2023/07/10 15:36:41;;;;;;;3.35;3.05;;;;;;;;;;6236025;28;20306;-71
2023/07/10 15:39:41;;;;;;;4.18;3.33;;;;;;;;;;6240183;28;20021;-71
2023/07/10 15:42:42;;;;;;;3.55;3.25;;;;;;;;;;6235593;28;20090;-71
2023/07/10 15:45:43;;;;;;;3.22;2.92;;;;;;;;;;6240442;28;20108;-72
2023/07/10 15:48:43;;;;;;;3.57;3.13;;;;;;;;;;6226862;28;20402;-73
2023/07/10 15:51:44;;;;;;;3.00;2.80;;;;;;;;;;6224802;28;20076;-72
2023/07/10 15:54:44;;;;;;;3.05;2.72;;;;;;;;;;6225780;28;20057;-72
2023/07/10 15:57:45;;;;;;;3.17;2.70;;;;;;;;;;6224131;28;20032;-73
2023/07/10 16:00:47;;;;;;;5.32;3.95;;;;;;;;;;6227809;28;20032;-73
2023/07/10 16:03:49;;;;;;;3.50;3.20;;;;;;;;;;6236658;28;20382;-72
2023/07/10 16:06:50;;;;;;;3.30;3.00;;;;;;;;;;6227064;28;20400;-72
2023/07/10 16:09:50;;;;;;;5.15;2.88;;;;;;;;;;6224874;28;20029;-74
2023/07/10 16:12:52;;;;;;;3.13;2.63;;;;;;;;;;6224803;28;20061;-75
2023/07/10 16:15:52;;;;;;;5.05;2.72;;;;;;;;;;6225458;28;20276;-73
2023/07/10 16:18:53;;;;;;;4.05;3.60;;;;;;;;;;6223864;28;20021;-70
2023/07/10 16:21:53;;;;;;;4.07;3.33;;;;;;;;;;6232405;28;20497;-67
2023/07/10 16:24:53;;;;;;;3.20;2.90;;;;;;;;;;6222679;28;20036;-68
2023/07/10 16:27:54;;;;;;;3.50;3.20;;;;;;;;;;6229132;28;20363;-68
2023/07/10 16:30:54;;;;;;;3.27;2.97;;;;;;;;;;6227625;28;20080;-70
2023/07/10 16:33:55;;;;;;;3.30;3.00;;;;;;;;;;6223462;28;21380;-66
2023/07/10 16:36:55;;;;;;;3.77;3.47;;;;;;;;;;6225977;28;20034;-66
2023/07/10 16:39:55;;;;;;;3.57;3.27;;;;;;;;;;6225661;28;20555;-68
2023/07/10 16:42:57;;;;;;;3.80;3.27;;;;;;;;;;6227592;28;20534;-67
2023/07/10 16:45:58;;;;;;;3.70;3.15;;;;;;;;;;6224728;28;20051;-69
2023/07/10 16:48:58;;;;;;;3.58;3.25;;;;;;;;;;6229801;28;20026;-69
2023/07/10 16:51:58;;;;;;;4.40;3.27;;;;;;;;;;6234892;28;20033;-69
2023/07/10 16:55:00;;;;;;;4.40;3.33;;;;;;;;;;6234172;28;20402;-69
2023/07/10 16:58:00;;;;;;;4.05;3.45;;;;;;;;;;6234698;28;20108;-69
2023/07/10 17:01:01;;;;;;;4.63;3.33;;;;;;;;;;6240522;28;20646;-67
2023/07/10 17:04:02;;;;;;;3.63;3.33;;;;;;;;;;6241021;28;20033;-68
2023/07/10 17:07:02;;;;;;;3.70;3.40;;;;;;;;;;6234699;28;20037;-68
2023/07/10 17:10:03;;;;;;;3.90;3.05;;;;;;;;;;6235990;28;20936;-68
2023/07/10 17:13:09;;;;;;;4.00;3.03;;;;;;;;;;6236754;28;20043;-70
2023/07/10 17:16:09;;;;;;;4.57;3.30;;;;;;;;;;6239300;28;20017;-68
2023/07/10 17:19:10;;;;;;;5.50;4.30;;;;;;;;;;6230428;28;20465;-68
2023/07/10 17:22:16;;;;;;;5.20;4.57;;;;;;;;;;6229353;28;20025;-70
2023/07/10 17:25:16;;;;;;;4.05;3.63;;;;;;;;;;6240319;28;20037;-69
2023/07/10 17:28:18;;;;;;;5.05;4.00;;;;;;;;;;6231799;28;20036;-69
2023/07/10 17:31:30;;;;;;;4.10;3.63;;;;;;;;;;6226276;28;20026;-70
2023/07/10 17:34:30;;;;;;;6.63;3.53;;;;;;;;;;6223999;28;20022;-69
2023/07/10 17:37:30;;;;;;;6.13;5.40;;;;;;;;;;6227466;28;20081;-68
2023/07/10 17:40:31;;;;;;;6.30;5.67;;;;;;;;;;6228603;28;20017;-68
2023/07/10 17:43:31;;;;;;;7.20;5.18;;;;;;;;;;6230846;28;20404;-69
2023/07/10 17:46:32;;;;;;;4.20;3.80;;;;;;;;;;6234398;28;20032;-68
2023/07/10 17:49:32;;;;;;;4.83;3.37;;;;;;;;;;6230243;28;20036;-68
2023/07/10 17:52:32;;;;;;;5.17;3.70;;;;;;;;;;6230435;28;20032;-68
2023/07/10 17:55:32;;;;;;;4.03;3.43;;;;;;;;;;6223485;28;20109;-70
2023/07/10 17:58:33;;;;;;;4.63;3.40;;;;;;;;;;6237695;28;20752;-69
2023/07/10 18:01:33;;;;;;;4.70;3.30;;;;;;;;;;6231712;28;20151;-67
2023/07/10 18:04:33;;;;;;;4.15;3.50;;;;;;;;;;6231420;28;20883;-69
2023/07/10 18:07:33;;;;;;;4.05;3.40;;;;;;;;;;6231250;28;20029;-67
2023/07/10 18:10:34;;;;;;;5.30;3.33;;;;;;;;;;6229123;28;20044;-68
2023/07/10 18:13:35;;;;;;;4.20;3.50;;;;;;;;;;6237180;28;20132;-71
2023/07/10 18:16:36;;;;;;;4.10;3.53;;;;;;;;;;6231940;28;20509;-62
2023/07/10 18:19:36;;;;;;;4.40;3.58;;;;;;;;;;6224682;28;20105;-64
2023/07/10 18:22:37;;;;;;;6.27;4.07;;;;;;;;;;6237786;28;20022;-70
2023/07/10 18:25:38;;;;;;;4.63;3.70;;;;;;;;;;6242304;28;20041;-68